Time;durP1;ratioP1;P1;durP2;ratioP2;P2;SDS_P1;SDS_P2;PMS_P1;PMS_P2;Temp;Humidity;BMP_temperature;BMP_pressure;BME280_temperature;BME280_humidity;BME280_pressure;Samples;Min_cycle;Max_cycle;Signal;HPM_P1;HPM_P2
2022/07/25 00:01:53;;;;;;;;;19.00;16.67;;;;;22.22;59.53;101159.98;111341;1257;19271;-84
2022/07/25 00:04:20;;;;;;;;;15.00;15.00;;;;;22.24;59.33;101156.12;111365;1258;22065;-83
2022/07/25 00:06:47;;;;;;;;;16.67;15.33;;;;;22.16;59.40;101150.85;111330;1258;20133;-83
2022/07/25 00:09:15;;;;;;;;;18.00;16.33;;;;;22.09;59.65;101153.09;111317;1257;21037;-82
2022/07/25 00:11:42;;;;;;;;;15.00;15.00;;;;;22.05;59.62;101148.95;111194;1258;19501;-84
2022/07/25 00:14:09;;;;;;;;;19.00;18.00;;;;;22.07;59.43;101148.36;111335;1257;22399;-83
2022/07/25 00:16:36;;;;;;;;;16.00;16.00;;;;;21.94;59.66;101145.51;111080;1257;24587;-83
2022/07/25 00:19:04;;;;;;;;;18.00;18.00;;;;;21.85;60.04;101143.27;111219;1258;20762;-83
2022/07/25 00:21:31;;;;;;;;;21.67;18.00;;;;;21.86;60.00;101141.15;111312;1257;20305;-83
2022/07/25 00:23:58;;;;;;;;;18.00;16.33;;;;;21.75;60.17;101139.50;111316;1258;19549;-83
2022/07/25 00:26:26;;;;;;;;;15.00;15.00;;;;;21.72;60.36;101137.50;111204;1258;19631;-82
2022/07/25 00:28:53;;;;;;;;;17.33;16.33;;;;;21.67;60.37;101134.55;111393;1258;20231;-83
2022/07/25 00:31:21;;;;;;;;;17.00;14.50;;;;;21.66;60.66;101133.19;111356;1258;23660;-83
2022/07/25 00:33:49;;;;;;;;;17.00;15.00;;;;;21.63;60.48;101130.08;111345;1257;22793;-83
2022/07/25 00:36:16;;;;;;;;;16.00;15.00;;;;;21.67;60.73;101123.52;111328;1258;22870;-83
2022/07/25 00:38:43;;;;;;;;;14.33;14.33;;;;;21.84;60.30;101124.38;111345;1258;22690;-82
2022/07/25 00:41:10;;;;;;;;;15.67;15.33;;;;;21.88;59.96;101127.58;111377;1257;21014;-82
2022/07/25 00:43:38;;;;;;;;;17.00;15.00;;;;;21.82;59.99;101125.30;111343;1257;20244;-82
2022/07/25 00:46:05;;;;;;;;;13.67;13.67;;;;;21.88;59.81;101119.17;111228;1258;19317;-82
2022/07/25 00:48:32;;;;;;;;;16.33;14.67;;;;;21.91;59.62;101120.33;111291;1258;24221;-83
2022/07/25 00:51:00;;;;;;;;;19.00;15.67;;;;;21.84;59.30;101111.93;111354;1258;20372;-82
2022/07/25 00:53:27;;;;;;;;;13.67;13.67;;;;;21.77;59.20;101112.19;111327;1258;19274;-83
2022/07/25 00:55:54;;;;;;;;;14.00;14.00;;;;;21.76;59.38;101111.52;111352;1257;21788;-83
2022/07/25 00:58:22;;;;;;;;;17.00;15.67;;;;;21.79;59.44;101107.95;111353;1258;21944;-83
2022/07/25 01:00:49;;;;;;;;;17.00;14.00;;;;;21.83;58.99;101111.61;111306;1258;19457;-83
2022/07/25 01:03:17;;;;;;;;;15.00;14.33;;;;;21.81;59.01;101115.11;111341;1257;19826;-83
2022/07/25 01:05:44;;;;;;;;;14.33;14.33;;;;;21.70;59.40;101115.30;111279;1258;20397;-83
2022/07/25 01:08:11;;;;;;;;;15.00;14.33;;;;;21.73;59.46;101115.30;111397;1257;19149;-83
2022/07/25 01:10:38;;;;;;;;;14.00;14.00;;;;;21.84;59.18;101117.52;111243;1258;22834;-83
2022/07/25 01:13:06;;;;;;;;;14.67;14.00;;;;;21.82;59.21;101116.67;111278;1258;20622;-83
2022/07/25 01:15:33;;;;;;;;;17.00;14.67;;;;;21.79;59.32;101115.52;111189;1257;19641;-82
2022/07/25 01:18:00;;;;;;;;;16.33;15.00;;;;;21.76;59.43;101118.36;111092;1258;22547;-83
2022/07/25 01:20:28;;;;;;;;;17.00;15.00;;;;;21.70;59.58;101120.39;111233;1258;21605;-82
2022/07/25 01:22:55;;;;;;;;;13.67;13.33;;;;;21.64;59.64;101115.42;111361;1258;19339;-85
2022/07/25 01:25:22;;;;;;;;;17.00;16.00;;;;;21.65;59.71;101113.05;111337;1257;21692;-84
2022/07/25 01:27:50;;;;;;;;;16.00;13.67;;;;;21.64;59.74;101111.46;111314;1257;20884;-84
2022/07/25 01:30:17;;;;;;;;;19.00;14.33;;;;;21.62;59.90;101110.18;111340;1258;21403;-84
2022/07/25 01:32:45;;;;;;;;;18.00;15.33;;;;;21.64;59.63;101104.84;111149;1258;20331;-82
2022/07/25 01:35:12;;;;;;;;;14.67;14.00;;;;;21.64;59.30;101105.57;111359;1258;20325;-85
2022/07/25 01:37:40;;;;;;;;;14.33;14.00;;;;;21.65;59.04;101098.48;111371;1257;20335;-83
2022/07/25 01:40:07;;;;;;;;;14.00;13.00;;;;;21.66;58.84;101097.28;111303;1257;21450;-84
2022/07/25 01:42:34;;;;;;;;;18.33;17.33;;;;;21.65;58.66;101093.88;111229;1258;20278;-84
2022/07/25 01:45:01;;;;;;;;;17.33;14.33;;;;;21.68;58.38;101092.33;111294;1258;22688;-84
2022/07/25 01:47:29;;;;;;;;;16.67;14.67;;;;;21.69;58.56;101092.52;111317;1258;19418;-83
2022/07/25 01:49:56;;;;;;;;;14.00;13.00;;;;;21.83;58.02;101086.01;111388;1257;21892;-82
2022/07/25 01:52:23;;;;;;;;;16.00;15.00;;;;;21.86;57.81;101083.98;111101;1258;19461;-83
2022/07/25 01:54:51;;;;;;;;;13.67;13.33;;;;;21.85;57.81;101088.08;111311;1258;24308;-82
2022/07/25 01:57:18;;;;;;;;;15.50;14.50;;;;;21.69;58.25;101087.92;111313;1257;22040;-82
2022/07/25 01:59:45;;;;;;;;;17.67;15.00;;;;;21.60;58.57;101091.20;111348;1257;19248;-82
2022/07/25 02:02:13;;;;;;;;;14.33;14.00;;;;;21.46;58.94;101086.13;111330;1258;19889;-82
2022/07/25 02:04:40;;;;;;;;;20.00;16.33;;;;;21.46;58.71;101087.22;111302;1257;21814;-83
2022/07/25 02:07:07;;;;;;;;;15.33;15.33;;;;;21.49;58.64;101086.94;111299;1257;20839;-82
2022/07/25 02:09:35;;;;;;;;;17.00;17.00;;;;;21.49;58.36;101089.09;111311;1258;19698;-82
2022/07/25 02:12:02;;;;;;;;;17.67;17.67;;;;;21.56;58.23;101092.17;111101;1258;20390;-83
2022/07/25 02:14:29;;;;;;;;;18.00;16.33;;;;;21.55;58.37;101092.67;111351;1258;19275;-83
2022/07/25 02:16:56;;;;;;;;;20.67;17.33;;;;;21.41;58.53;101095.48;111385;1257;19799;-83
2022/07/25 02:19:24;;;;;;;;;18.00;14.33;;;;;21.35;58.70;101096.55;111293;1257;22150;-80
2022/07/25 02:21:51;;;;;;;;;17.00;16.67;;;;;21.33;58.80;101093.27;111305;1258;20649;-82
2022/07/25 02:24:18;;;;;;;;;17.00;16.00;;;;;21.25;58.92;101093.05;111286;1258;19596;-84
2022/07/25 02:26:46;;;;;;;;;22.00;21.00;;;;;21.24;58.86;101092.61;111166;1258;21613;-84
2022/07/25 02:29:13;;;;;;;;;15.67;15.33;;;;;21.22;58.92;101091.42;111411;1258;19368;-82
2022/07/25 02:31:40;;;;;;;;;19.00;18.00;;;;;21.23;58.95;101086.72;111357;1257;20019;-83
2022/07/25 02:34:07;;;;;;;;;21.67;17.67;;;;;21.17;58.86;101086.91;111339;1257;21680;-83
2022/07/25 02:36:35;;;;;;;;;14.67;14.33;;;;;21.20;58.85;101083.89;111323;1257;23949;-83
2022/07/25 02:39:02;;;;;;;;;19.33;18.00;;;;;21.20;58.82;101088.39;111334;1257;19649;-83
2022/07/25 02:41:30;;;;;;;;;16.67;16.00;;;;;21.21;58.89;101087.73;111352;1258;20827;-84
2022/07/25 02:43:57;;;;;;;;;17.00;17.00;;;;;21.19;58.96;101082.46;111261;1256;19358;-83
2022/07/25 02:46:25;;;;;;;;;14.67;14.67;;;;;21.22;58.61;101084.84;111370;1257;22824;-82
2022/07/25 02:48:52;;;;;;;;;18.00;14.00;;;;;21.17;58.68;101080.92;111178;1258;20385;-83
2022/07/25 02:51:19;;;;;;;;;17.33;15.33;;;;;21.13;58.99;101083.91;111286;1258;19350;-82
2022/07/25 02:53:47;;;;;;;;;18.00;17.00;;;;;21.08;59.21;101089.00;111158;1259;23651;-82
2022/07/25 02:56:14;;;;;;;;;17.00;16.00;;;;;21.12;58.96;101086.75;111403;1257;20404;-82
2022/07/25 02:58:41;;;;;;;;;17.00;16.67;;;;;21.11;59.08;101089.03;111362;1257;19056;-82
2022/07/25 03:01:08;;;;;;;;;17.00;16.33;;;;;21.12;58.94;101090.50;111383;1258;19545;-82
2022/07/25 03:03:36;;;;;;;;;17.00;16.00;;;;;21.18;58.84;101088.62;111334;1257;20306;-82
2022/07/25 03:06:03;;;;;;;;;17.67;17.00;;;;;21.10;58.89;101090.73;111300;1258;20427;-83
2022/07/25 03:08:30;;;;;;;;;16.50;16.00;;;;;21.16;58.65;101094.59;111368;1257;19748;-82
2022/07/25 03:10:58;;;;;;;;;17.00;16.67;;;;;21.12;58.62;101095.23;111368;1258;20416;-82
2022/07/25 03:13:25;;;;;;;;;17.00;17.00;;;;;21.08;58.97;101092.54;111266;1258;22688;-82
2022/07/25 03:15:53;;;;;;;;;17.00;15.33;;;;;21.02;58.98;101091.32;111308;1257;22799;-83
2022/07/25 03:18:20;;;;;;;;;17.33;14.67;;;;;20.92;59.22;101096.35;111307;1257;20419;-84
2022/07/25 03:20:47;;;;;;;;;17.33;16.67;;;;;20.96;58.93;101099.80;111331;1258;19478;-83
2022/07/25 03:23:14;;;;;;;;;21.00;20.00;;;;;21.01;58.80;101097.79;111347;1257;22681;-83
2022/07/25 03:25:42;;;;;;;;;20.00;18.00;;;;;20.96;59.05;101094.07;111312;1258;20789;-83
2022/07/25 03:28:09;;;;;;;;;17.00;16.67;;;;;20.96;58.91;101092.98;111183;1259;19610;-83
2022/07/25 03:30:36;;;;;;;;;18.67;17.67;;;;;20.96;58.91;101089.61;111348;1258;22845;-83
2022/07/25 03:33:03;;;;;;;;;20.67;17.67;;;;;20.98;58.76;101089.52;111321;1257;20318;-83
2022/07/25 03:35:31;;;;;;;;;20.00;17.67;;;;;21.14;58.31;101091.02;111334;1257;21205;-83
2022/07/25 03:37:58;;;;;;;;;17.33;17.00;;;;;21.16;58.42;101086.71;111358;1258;19665;-83
2022/07/25 03:40:26;;;;;;;;;19.33;18.00;;;;;21.12;58.53;101090.05;111344;1257;20321;-82
2022/07/25 03:42:53;;;;;;;;;20.67;19.33;;;;;21.05;58.51;101089.24;111291;1257;19424;-85
2022/07/25 03:45:20;;;;;;;;;19.00;18.00;;;;;21.09;58.70;101091.27;111311;1257;19572;-84
2022/07/25 03:47:47;;;;;;;;;17.00;16.00;;;;;21.12;58.85;101090.33;111353;1257;20501;-83
2022/07/25 03:50:15;;;;;;;;;20.00;17.00;;;;;21.13;58.54;101087.46;111391;1258;19104;-83
2022/07/25 03:52:42;;;;;;;;;17.00;17.00;;;;;21.11;58.76;101085.21;111346;1257;19505;-83
2022/07/25 03:55:09;;;;;;;;;17.33;17.00;;;;;21.11;58.72;101087.20;111335;1258;21612;-83
2022/07/25 03:57:37;;;;;;;;;16.50;16.00;;;;;21.11;58.88;101088.08;111304;1258;19246;-84
2022/07/25 04:00:04;;;;;;;;;20.67;18.00;;;;;21.02;59.13;101079.80;111295;1257;19577;-84
2022/07/25 04:02:31;;;;;;;;;17.00;17.00;;;;;20.96;59.32;101078.85;111344;1258;20367;-82
2022/07/25 04:04:58;;;;;;;;;16.67;16.00;;;;;21.04;59.30;101070.50;111369;1257;19285;-84
2022/07/25 04:07:26;;;;;;;;;17.50;16.00;;;;;21.00;59.32;101069.27;111340;1257;20363;-83
2022/07/25 04:09:53;;;;;;;;;16.67;16.00;;;;;21.10;58.89;101068.99;111341;1258;23671;-85
2022/07/25 04:12:20;;;;;;;;;20.67;16.67;;;;;21.20;58.81;101065.48;111373;1258;22435;-83
2022/07/25 04:14:48;;;;;;;;;16.33;16.00;;;;;21.39;58.15;101066.64;111367;1258;19388;-83
2022/07/25 04:17:15;;;;;;;;;17.00;17.00;;;;;21.43;57.85;101070.39;111384;1258;20298;-85
2022/07/25 04:19:42;;;;;;;;;18.33;17.00;;;;;21.41;58.20;101072.23;111354;1257;19310;-86
2022/07/25 04:22:09;;;;;;;;;18.00;18.00;;;;;21.31;58.20;101077.47;111309;1258;19875;-84
2022/07/25 04:24:37;;;;;;;;;17.67;16.33;;;;;21.30;58.36;101077.59;111330;1257;21696;-82
2022/07/25 04:27:04;;;;;;;;;21.00;19.00;;;;;21.37;58.50;101075.23;111322;1258;23494;-82
2022/07/25 04:29:32;;;;;;;;;18.00;17.00;;;;;21.29;58.61;101070.54;111328;1257;23710;-82
2022/07/25 04:31:59;;;;;;;;;17.67;15.00;;;;;21.31;58.83;101072.98;111348;1257;20347;-83
2022/07/25 04:34:26;;;;;;;;;20.00;17.67;;;;;21.24;58.86;101070.83;111338;1258;20059;-84
2022/07/25 04:36:54;;;;;;;;;22.00;19.00;;;;;21.24;58.92;101070.27;111366;1257;26815;-84
2022/07/25 04:39:21;;;;;;;;;16.33;15.00;;;;;21.22;59.00;101068.11;111374;1257;20280;-83
2022/07/25 04:41:48;;;;;;;;;20.00;17.67;;;;;21.30;58.90;101067.80;111344;1258;21634;-83
2022/07/25 04:44:16;;;;;;;;;19.33;17.67;;;;;21.32;58.79;101061.33;111394;1258;19728;-84
2022/07/25 04:46:43;;;;;;;;;15.00;14.50;;;;;21.34;58.65;101057.76;111343;1258;22796;-82
2022/07/25 04:49:10;;;;;;;;;21.67;19.33;;;;;21.30;58.56;101057.47;111351;1258;19310;-84
2022/07/25 04:51:38;;;;;;;;;17.00;17.00;;;;;21.40;58.52;101053.80;111339;1257;19886;-85
2022/07/25 04:54:05;;;;;;;;;17.00;17.00;;;;;21.37;58.38;101049.98;111391;1257;20317;-84
2022/07/25 04:56:33;;;;;;;;;18.00;18.00;;;;;21.28;58.60;101043.88;111306;1258;21837;-83
2022/07/25 04:59:00;;;;;;;;;19.00;17.67;;;;;21.29;58.73;101044.30;111379;1257;19643;-84
2022/07/25 05:01:27;;;;;;;;;20.33;18.00;;;;;21.26;58.71;101041.70;111345;1257;20212;-84
2022/07/25 05:03:54;;;;;;;;;19.33;17.00;;;;;21.25;58.78;101041.29;111311;1257;23487;-83
2022/07/25 05:06:22;;;;;;;;;18.67;18.00;;;;;21.28;59.01;101045.64;111331;1258;19632;-85
2022/07/25 05:08:49;;;;;;;;;21.00;20.67;;;;;21.27;59.05;101045.44;111333;1258;20545;-84
2022/07/25 05:11:16;;;;;;;;;18.00;14.67;;;;;21.34;58.94;101048.08;111392;1257;19313;-84
2022/07/25 05:13:44;;;;;;;;;23.33;20.67;;;;;21.45;58.44;101047.20;111281;1257;21093;-83
2022/07/25 05:16:11;;;;;;;;;17.00;16.33;;;;;21.46;58.58;101045.67;111324;1257;20362;-83
2022/07/25 05:18:38;;;;;;;;;17.00;16.00;;;;;21.39;58.64;101039.15;111352;1257;19365;-83
2022/07/25 05:21:05;;;;;;;;;21.00;17.00;;;;;21.47;58.88;101026.98;111322;1257;21047;-82
2022/07/25 05:23:33;;;;;;;;;15.67;15.67;;;;;21.53;58.62;101026.52;111332;1257;20222;-82
2022/07/25 05:26:00;;;;;;;;;21.00;20.67;;;;;21.64;58.46;101026.90;111365;1258;18995;-83
2022/07/25 05:28:27;;;;;;;;;20.00;17.50;;;;;21.77;58.11;101026.83;111310;1257;21629;-84
2022/07/25 05:30:55;;;;;;;;;18.00;18.00;;;;;21.84;58.04;101019.83;111170;1258;23257;-84
2022/07/25 05:33:22;;;;;;;;;16.67;16.67;;;;;21.87;58.05;101026.23;111311;1257;19390;-84
2022/07/25 05:35:49;;;;;;;;;17.00;17.00;;;;;21.98;57.76;101024.58;111327;1258;22199;-84
2022/07/25 05:38:17;;;;;;;;;17.00;15.67;;;;;22.01;57.88;101023.67;111356;1258;20282;-84
2022/07/25 05:40:44;;;;;;;;;17.00;17.00;;;;;21.93;58.06;101022.38;111292;1257;23936;-83
2022/07/25 05:43:12;;;;;;;;;16.33;15.67;;;;;21.99;58.07;101019.02;111325;1257;19549;-83
2022/07/25 05:45:39;;;;;;;;;16.00;14.67;;;;;22.12;57.75;101020.08;111296;1257;20316;-84
2022/07/25 05:48:07;;;;;;;;;17.33;15.00;;;;;22.18;57.76;101017.92;111314;1257;19225;-84
2022/07/25 05:50:34;;;;;;;;;15.00;14.33;;;;;22.32;57.55;101014.59;111336;1257;19639;-84
2022/07/25 05:53:01;;;;;;;;;17.67;15.00;;;;;22.38;57.30;101018.91;111350;1257;20420;-84
2022/07/25 05:55:28;;;;;;;;;15.67;15.00;;;;;22.36;57.21;101017.98;111348;1257;19209;-84
2022/07/25 05:57:56;;;;;;;;;15.00;15.00;;;;;22.39;57.17;101018.38;111400;1257;21893;-83
2022/07/25 06:00:23;;;;;;;;;14.00;14.00;;;;;22.40;57.01;101017.05;111334;1258;22311;-83
2022/07/25 06:02:51;;;;;;;;;13.00;11.67;;;;;22.36;57.07;101013.20;111340;1258;19506;-84
2022/07/25 06:05:18;;;;;;;;;15.67;14.33;;;;;22.33;57.05;101014.27;111364;1258;21084;-84
2022/07/25 06:07:45;;;;;;;;;15.00;14.33;;;;;22.43;57.04;101005.27;111369;1257;22244;-84
2022/07/25 06:10:13;;;;;;;;;13.00;13.00;;;;;22.57;56.74;101003.66;111328;1257;19345;-83
2022/07/25 06:12:40;;;;;;;;;11.00;11.00;;;;;22.51;56.77;100997.59;111340;1258;19634;-83
2022/07/25 06:15:08;;;;;;;;;14.00;14.00;;;;;22.39;57.02;100999.17;111290;1258;20343;-83
2022/07/25 06:17:35;;;;;;;;;11.00;11.00;;;;;22.25;57.40;100994.74;111310;1258;23090;-83
2022/07/25 06:20:03;;;;;;;;;14.00;13.00;;;;;22.46;57.14;100992.95;111365;1258;19695;-84
2022/07/25 06:22:30;;;;;;;;;15.00;15.00;;;;;22.56;56.98;100997.85;111341;1257;21075;-84
2022/07/25 06:24:57;;;;;;;;;14.33;14.00;;;;;22.46;56.95;100995.82;111308;1258;19083;-82
2022/07/25 06:27:25;;;;;;;;;14.33;14.33;;;;;22.62;56.82;100995.89;111326;1258;22578;-83
2022/07/25 06:29:52;;;;;;;;;15.67;15.00;;;;;22.81;56.61;100991.13;111395;1257;20415;-83
2022/07/25 06:32:20;;;;;;;;;16.00;15.00;;;;;22.89;56.39;100990.88;111332;1257;19269;-83
2022/07/25 06:34:47;;;;;;;;;14.50;14.00;;;;;22.93;56.15;100989.69;111289;1258;19993;-83
2022/07/25 06:37:15;;;;;;;;;14.50;14.00;;;;;23.08;55.88;100984.79;111277;1258;20526;-82
2022/07/25 06:39:42;;;;;;;;;14.00;14.00;;;;;23.19;55.49;100983.79;111303;1258;19164;-82
2022/07/25 06:42:09;;;;;;;;;16.00;14.50;;;;;23.35;55.25;100982.55;111268;1258;22260;-83
2022/07/25 06:44:36;;;;;;;;;15.00;14.00;;;;;23.55;54.78;100979.51;111280;1257;22132;-84
2022/07/25 06:47:11;;;;;;;;;15.67;14.00;;;;;23.73;54.53;100972.00;111250;1257;19546;-83
2022/07/25 06:49:38;;;;;;;;;16.00;16.00;;;;;23.90;54.25;100966.40;111101;1257;19841;-82
2022/07/25 06:52:05;;;;;;;;;17.00;16.00;;;;;24.05;54.24;100963.91;111284;1257;20306;-83
2022/07/25 06:54:33;;;;;;;;;16.00;16.00;;;;;24.07;53.85;100963.69;111309;1258;19231;-83
2022/07/25 06:57:00;;;;;;;;;20.00;20.00;;;;;24.05;53.67;100957.84;111274;1257;21522;-82
2022/07/25 06:59:27;;;;;;;;;15.00;14.33;;;;;24.04;53.57;100957.40;111340;1257;21951;-83
2022/07/25 07:01:58;;;;;;;;;17.00;16.67;;;;;23.69;53.77;100954.26;111359;1258;19496;-83
2022/07/25 07:04:26;;;;;;;;;16.00;16.00;;;;;23.79;53.85;100947.69;111274;1258;21324;-86
2022/07/25 07:06:54;;;;;;;;;14.67;14.67;;;;;23.99;53.49;100947.38;111275;1258;20334;-83
2022/07/25 07:09:21;;;;;;;;;16.67;16.00;;;;;24.21;53.38;100938.64;111189;1257;22176;-83
2022/07/25 07:11:48;;;;;;;;;16.00;15.00;;;;;24.39;53.27;100940.10;111318;1258;19530;-82
2022/07/25 07:14:16;;;;;;;;;14.33;14.33;;;;;24.46;52.78;100942.34;111265;1258;20397;-83
2022/07/25 07:16:43;;;;;;;;;17.00;17.00;;;;;24.55;52.64;100943.45;111252;1258;21512;-82
2022/07/25 07:19:10;;;;;;;;;17.00;16.00;;;;;24.59;52.52;100941.48;111354;1258;19827;-83
2022/07/25 07:21:38;;;;;;;;;15.33;13.33;;;;;24.56;52.43;100940.86;111258;1257;22272;-83
2022/07/25 07:24:05;;;;;;;;;16.00;15.33;;;;;24.32;52.45;100939.77;111287;1257;20465;-83
2022/07/25 07:26:32;;;;;;;;;15.33;15.33;;;;;24.20;52.43;100943.39;111387;1258;19494;-84
2022/07/25 07:29:01;;;;;;;;;14.33;13.67;;;;;24.09;52.56;100935.69;111355;1257;20117;-83
2022/07/25 07:31:29;;;;;;;;;16.00;15.67;;;;;24.26;52.54;100938.55;111278;1258;19297;-85
2022/07/25 07:33:57;;;;;;;;;15.00;13.00;;;;;24.26;52.39;100933.64;111338;1258;22999;-86
2022/07/25 07:36:28;;;;;;;;;14.00;12.67;;;;;24.01;52.59;100935.64;111140;1258;23480;-84
2022/07/25 07:38:55;;;;;;;;;13.00;13.00;;;;;24.32;52.41;100930.29;111225;1257;20699;-83
2022/07/25 07:41:22;;;;;;;;;15.00;13.00;;;;;24.46;51.96;100929.77;110334;1258;1248854;-84
2022/07/25 07:43:50;;;;;;;;;15.00;12.00;;;;;24.45;52.00;100924.27;111342;1257;21467;-83
2022/07/25 07:46:17;;;;;;;;;16.00;16.00;;;;;24.68;51.75;100923.73;111272;1257;19185;-83
2022/07/25 07:48:44;;;;;;;;;15.00;13.67;;;;;24.68;51.27;100923.00;111305;1258;19933;-83
2022/07/25 07:51:12;;;;;;;;;15.00;15.00;;;;;24.78;51.19;100922.65;111293;1258;20289;-84
2022/07/25 07:56:24;;;;;;;;;15.00;13.67;;;;;25.00;50.52;100921.05;111375;1258;19485;-83
2022/07/25 07:58:52;;;;;;;;;13.00;12.50;;;;;25.05;50.14;100916.45;111225;1257;21573;-82
2022/07/25 08:01:19;;;;;;;;;15.00;12.00;;;;;25.07;49.62;100915.48;111236;1258;24333;-84
2022/07/25 08:03:46;;;;;;;;;13.00;12.00;;;;;24.85;49.33;100908.86;111300;1258;21804;-83
2022/07/25 08:06:14;;;;;;;;;13.00;12.00;;;;;24.93;49.11;100909.94;111337;1258;20275;-82
2022/07/25 08:08:41;;;;;;;;;15.00;13.00;;;;;24.89;48.60;100911.64;111351;1258;20166;-83
2022/07/25 08:11:08;;;;;;;;;13.00;12.00;;;;;24.92;48.52;100907.95;111334;1257;20340;-83
2022/07/25 08:13:36;;;;;;;;;12.00;12.00;;;;;25.07;48.03;100904.41;111309;1258;21086;-83
2022/07/25 08:16:04;;;;;;;;;13.00;13.00;;;;;25.18;47.73;100900.84;111350;1258;23757;-83
2022/07/25 08:18:31;;;;;;;;;14.00;14.00;;;;;25.40;47.84;100897.50;111350;1258;19593;-83
2022/07/25 08:20:58;;;;;;;;;12.67;12.67;;;;;25.65;47.69;100897.98;111497;1258;20298;-83
2022/07/25 08:23:27;;;;;;;;;12.00;12.00;;;;;25.69;47.58;100895.84;111385;1258;19339;-83
2022/07/25 08:25:54;;;;;;;;;16.00;14.00;;;;;25.74;47.68;100896.23;111303;1258;25168;-84
2022/07/25 08:28:22;;;;;;;;;12.33;12.00;;;;;25.79;47.55;100892.73;111337;1258;20238;-83
2022/07/25 08:30:52;;;;;;;;;14.67;13.00;;;;;25.81;47.58;100885.91;111302;1257;19952;-83
2022/07/25 08:33:19;;;;;;;;;12.00;12.00;;;;;25.91;47.98;100883.23;111373;1257;19527;-83
2022/07/25 08:35:47;;;;;;;;;16.67;15.33;;;;;26.03;48.08;100881.77;111349;1258;23168;-86
2022/07/25 08:38:14;;;;;;;;;14.33;14.00;;;;;26.10;47.89;100877.41;111306;1257;22147;-85
2022/07/25 08:40:41;;;;;;;;;14.00;13.33;;;;;26.17;47.73;100880.73;111298;1257;21131;-82
2022/07/25 08:43:09;;;;;;;;;12.67;12.67;;;;;25.78;47.37;100881.48;111053;1257;20898;-84
2022/07/25 08:45:36;;;;;;;;;11.50;11.00;;;;;25.70;47.31;100877.56;111279;1257;21781;-85
2022/07/25 08:48:03;;;;;;;;;13.00;12.00;;;;;25.73;46.55;100874.42;111455;1257;19656;-84
2022/07/25 08:50:31;;;;;;;;;11.00;11.00;;;;;25.78;45.64;100874.73;111443;1258;21872;-83
2022/07/25 08:52:58;;;;;;;;;11.00;11.00;;;;;25.63;44.71;100870.83;111320;1257;22144;-81
2022/07/25 08:55:27;;;;;;;;;13.00;13.00;;;;;25.59;44.93;100866.13;111323;1258;23588;-82
2022/07/25 08:57:54;;;;;;;;;27.00;24.67;;;;;25.98;45.09;100863.13;111339;1257;22795;-82
2022/07/25 09:00:22;;;;;;;;;75.00;60.00;;;;;26.31;45.13;100868.19;111331;1258;20511;-83
2022/07/25 09:02:49;;;;;;;;;77.00;59.00;;;;;26.07;45.17;100864.92;111321;1257;21052;-83
2022/07/25 09:05:17;;;;;;;;;48.00;42.00;;;;;26.05;45.59;100860.27;111399;1257;22799;-84
2022/07/25 09:07:44;;;;;;;;;24.67;22.67;;;;;26.08;45.37;100857.02;111339;1258;23572;-81
2022/07/25 09:10:12;;;;;;;;;19.00;17.50;;;;;25.99;45.03;100858.74;111322;1257;25872;-83
2022/07/25 09:12:39;;;;;;;;;14.00;13.67;;;;;25.78;45.18;100855.80;111317;1258;20460;-83
2022/07/25 09:15:07;;;;;;;;;14.00;13.33;;;;;26.13;45.23;100856.05;111287;1256;19424;-82
2022/07/25 09:17:35;;;;;;;;;14.00;13.67;;;;;26.27;45.30;100849.52;111183;1258;20008;-81
2022/07/25 09:20:03;;;;;;;;;15.67;14.00;;;;;26.29;45.31;100853.44;111286;1255;20356;-83
2022/07/25 09:22:31;;;;;;;;;14.00;13.33;;;;;26.26;45.51;100849.41;111109;1256;20154;-81
2022/07/25 09:24:58;;;;;;;;;12.00;12.00;;;;;26.42;45.60;100846.99;111257;1256;19968;-81
2022/07/25 09:27:26;;;;;;;;;15.00;13.00;;;;;26.47;44.98;100851.90;111301;1258;21770;-84
2022/07/25 09:29:53;;;;;;;;;14.00;13.00;;;;;26.26;44.82;100850.34;111328;1256;21730;-81
2022/07/25 09:32:20;;;;;;;;;13.67;13.33;;;;;26.04;44.85;100846.45;111343;1256;23102;-81
2022/07/25 09:34:48;;;;;;;;;12.00;11.33;;;;;26.25;44.66;100847.60;111304;1255;20777;-81
2022/07/25 09:37:15;;;;;;;;;9.00;9.00;;;;;26.40;44.22;100849.65;111244;1258;22826;-81
2022/07/25 09:39:42;;;;;;;;;11.33;10.00;;;;;26.27;43.92;100845.65;111330;1256;22867;-81
2022/07/25 09:42:10;;;;;;;;;11.33;10.00;;;;;26.26;43.97;100847.86;111308;1258;20241;-82
2022/07/25 09:44:37;;;;;;;;;10.00;10.00;;;;;26.60;44.02;100846.30;111265;1258;19453;-82
2022/07/25 09:47:04;;;;;;;;;10.00;10.00;;;;;26.81;43.46;100847.88;111306;1256;19802;-83
2022/07/25 09:49:32;;;;;;;;;10.67;9.67;;;;;26.77;43.52;100845.86;111206;1257;23527;-83
2022/07/25 09:51:59;;;;;;;;;9.33;9.33;;;;;26.84;43.65;100841.73;111241;1257;19700;-81
2022/07/25 09:54:26;;;;;;;;;10.00;10.00;;;;;26.84;42.96;100841.36;111292;1258;19491;-81
2022/07/25 09:56:54;;;;;;;;;9.33;9.33;;;;;26.67;42.82;100839.83;111402;1255;20236;-81
2022/07/25 09:59:21;;;;;;;;;11.67;10.67;;;;;26.33;42.98;100836.83;111399;1255;20308;-83
2022/07/25 10:01:48;;;;;;;;;10.00;10.00;;;;;26.31;42.94;100833.95;111362;1255;22640;-81
2022/07/25 10:04:16;;;;;;;;;10.00;10.00;;;;;26.51;43.14;100834.63;111334;1256;21390;-77
2022/07/25 10:06:46;;;;;;;;;11.33;10.00;;;;;26.12;43.87;100830.17;111422;1255;19270;-82
2022/07/25 10:09:13;;;;;;;;;9.00;9.00;;;;;25.77;44.90;100825.64;111351;1256;19645;-80
2022/07/25 10:11:41;;;;;;;;;12.50;12.00;;;;;25.59;45.53;100821.06;111399;1256;20280;-80
2022/07/25 10:14:09;;;;;;;;;15.33;13.00;;;;;25.56;45.90;100826.03;111375;1255;19264;-80
2022/07/25 10:16:36;;;;;;;;;13.00;13.00;;;;;25.64;45.85;100817.66;111335;1256;22358;-79
2022/07/25 10:19:04;;;;;;;;;13.67;12.67;;;;;25.60;46.18;100819.88;111184;1256;20307;-83
2022/07/25 10:21:31;;;;;;;;;13.67;13.67;;;;;25.66;45.89;100816.09;111151;1257;19434;-80
2022/07/25 10:23:58;;;;;;;;;11.00;10.00;;;;;25.72;45.93;100817.61;111307;1258;20023;-77
2022/07/25 10:26:26;;;;;;;;;8.67;8.67;;;;;25.71;45.76;100812.66;111365;1257;20637;-79
2022/07/25 10:28:54;;;;;;;;;12.33;12.00;;;;;25.70;45.44;100809.57;111309;1258;19444;-79
2022/07/25 10:31:21;;;;;;;;;13.33;13.00;;;;;25.72;45.68;100804.66;111231;1258;23478;-79
2022/07/25 10:33:49;;;;;;;;;13.33;13.00;;;;;25.72;45.57;100797.12;111104;1258;22046;-81
2022/07/25 10:36:16;;;;;;;;;12.00;12.00;;;;;25.68;45.68;100789.80;111368;1258;19270;-79
2022/07/25 10:38:44;;;;;;;;;12.00;10.33;;;;;25.67;46.21;100788.26;111291;1256;21904;-79
2022/07/25 10:41:11;;;;;;;;;20.00;20.00;;;;;25.81;45.89;100784.48;111372;1258;21813;-85
2022/07/25 10:43:38;;;;;;;;;9.50;9.00;;;;;25.96;44.91;100786.80;111341;1258;19330;-78
2022/07/25 10:46:06;;;;;;;;;12.67;12.67;;;;;25.89;44.89;100781.20;111269;1257;19858;-78
2022/07/25 10:48:33;;;;;;;;;12.00;12.00;;;;;25.82;45.00;100784.30;111193;1257;20414;-77
2022/07/25 10:51:01;;;;;;;;;11.00;11.00;;;;;25.75;44.96;100776.27;111143;1257;20156;-77
2022/07/25 10:53:28;;;;;;;;;11.00;11.00;;;;;25.69;45.03;100776.24;111194;1257;22189;-79
2022/07/25 10:55:55;;;;;;;;;9.67;9.67;;;;;25.75;44.79;100768.59;111190;1258;22058;-79
2022/07/25 10:58:22;;;;;;;;;10.00;10.00;;;;;25.75;44.49;100766.21;111237;1258;19439;-81
2022/07/25 11:00:51;;;;;;;;;9.33;8.33;;;;;25.77;44.22;100764.23;111357;1257;20998;-81
2022/07/25 11:03:19;;;;;;;;;9.00;9.00;;;;;25.81;44.16;100761.92;111313;1258;20639;-82
2022/07/25 11:05:46;;;;;;;;;12.33;10.00;;;;;25.77;44.28;100758.84;111238;1257;19313;-79